Pagrindinis puslapis
METAR-TAF:

METAR-TAF

Oro uostai :

Fritzlar, Vokietija

platuma: 51-07N, ilguma: 009-17E, Aukštis: 172 m

Dabartinis oras

Ataskaita buvo paskelbta 48 minutes, ne 22:20 UTC
Vėjas 6 kt iš Šiaurės
Temperatūra 5°C
Drėgmė 60%
Slėgis 1022 hPa
Matomumas: 5000 m

METAR: ETHF 282220Z AUTO 35006KT 5000 // ////// 05/M02 Q1022 ///

Laikas: 00:08 (23:08 UTC)


TAF: trūkstamas

Orai ataskaitas ir orų prognozės (METAR, TAF).

turimą stotys yra geltonos ir raudonos taškus žemėlapyje.

Perkelti pele per norėdami pamatyti stoties vardą.

Tada spustelėkite, norėdami matyti oro stebėjimo ir prognozės.

Norėdami pakeisti žemėlapį: spustelėkite ant žalios mygtukų su juodo kryžiaus žemyn,; žalią mygtuką su brūkšneliu, jei norite nutolinti; arba žalių rodyklių gretimoms žemėlapius.


METAR-TAF: